Time;durP1;ratioP1;P1;durP2;ratioP2;P2;SDS_P1;SDS_P2;PMS_P1;PMS_P2;Temp;Humidity;BMP_temperature;BMP_pressure;BME280_temperature;BME280_humidity;BME280_pressure;Samples;Min_cycle;Max_cycle;Signal;HPM_P1;HPM_P2
2023/09/20 00:00:45;;;;;;;5.45;3.20;;;;;;;;;;2597703;22;19996;-91
2023/09/20 00:01:49;;;;;;;5.35;3.47;;;;;;;;;;2593648;22;20445;-90
2023/09/20 00:02:50;;;;;;;4.38;2.80;;;;;;;;;;2593987;22;20369;-90
2023/09/20 00:03:50;;;;;;;9.30;3.25;;;;;;;;;;2593653;22;20457;-90
2023/09/20 00:04:51;;;;;;;4.50;3.28;;;;;;;;;;2597452;22;19996;-90
2023/09/20 00:05:51;;;;;;;4.75;3.30;;;;;;;;;;2593725;22;20412;-90
2023/09/20 00:06:53;;;;;;;4.53;3.33;;;;;;;;;;2596386;22;20026;-90
2023/09/20 00:07:57;;;;;;;6.53;3.22;;;;;;;;;;2606323;22;20030;-90
2023/09/20 00:09:00;;;;;;;4.65;3.63;;;;;;;;;;2593624;22;20000;-91
2023/09/20 00:10:00;;;;;;;4.30;2.90;;;;;;;;;;2593698;22;20004;-91
2023/09/20 00:11:01;;;;;;;3.88;3.20;;;;;;;;;;2580736;23;20061;-90
2023/09/20 00:12:02;;;;;;;4.95;3.83;;;;;;;;;;2593608;22;20003;-90
2023/09/20 00:13:03;;;;;;;4.22;3.47;;;;;;;;;;2608313;22;19995;-90
2023/09/20 00:14:03;;;;;;;5.47;3.10;;;;;;;;;;2594752;22;20141;-91
2023/09/20 00:15:05;;;;;;;7.93;3.65;;;;;;;;;;2588494;22;20062;-90
2023/09/20 00:16:06;;;;;;;4.57;2.97;;;;;;;;;;2593974;22;20023;-90
2023/09/20 00:17:07;;;;;;;3.85;3.17;;;;;;;;;;2593367;22;20034;-91
2023/09/20 00:18:08;;;;;;;4.45;3.30;;;;;;;;;;2581120;22;20046;-90
2023/09/20 00:19:08;;;;;;;4.50;3.63;;;;;;;;;;2581103;22;20000;-90
2023/09/20 00:20:13;;;;;;;4.18;3.28;;;;;;;;;;2593782;22;20518;-91
2023/09/20 00:21:13;;;;;;;3.80;3.22;;;;;;;;;;2594793;22;20063;-90
2023/09/20 00:22:14;;;;;;;5.50;3.33;;;;;;;;;;2593518;22;20004;-90
2023/09/20 00:23:20;;;;;;;5.55;3.17;;;;;;;;;;2594908;22;20026;-90
2023/09/20 00:24:20;;;;;;;5.60;3.40;;;;;;;;;;2595360;22;20056;-91
2023/09/20 00:25:21;;;;;;;4.38;3.40;;;;;;;;;;2606397;22;20003;-90
2023/09/20 00:26:22;;;;;;;4.43;3.00;;;;;;;;;;2606747;22;20006;-90
2023/09/20 00:27:22;;;;;;;3.40;3.10;;;;;;;;;;2593599;22;20064;-90
2023/09/20 00:28:23;;;;;;;5.35;2.78;;;;;;;;;;2593882;22;20487;-90
2023/09/20 00:29:26;;;;;;;3.75;2.80;;;;;;;;;;2593514;22;20008;-91
2023/09/20 00:30:27;;;;;;;3.28;2.85;;;;;;;;;;2150648;22;10242975;-91
2023/09/20 00:31:27;;;;;;;5.72;3.13;;;;;;;;;;2593478;22;20038;-90
2023/09/20 00:32:28;;;;;;;3.63;2.78;;;;;;;;;;2580898;23;20389;-91
2023/09/20 00:33:29;;;;;;;8.38;3.00;;;;;;;;;;2580758;22;20000;-91
2023/09/20 00:34:31;;;;;;;4.70;2.92;;;;;;;;;;2593538;22;20061;-91
2023/09/20 00:35:31;;;;;;;4.45;3.03;;;;;;;;;;2580725;22;20000;-91
2023/09/20 00:36:32;;;;;;;3.78;2.72;;;;;;;;;;2597766;22;20103;-91
2023/09/20 00:37:32;;;;;;;8.95;2.88;;;;;;;;;;2598725;22;19991;-90
2023/09/20 00:38:34;;;;;;;4.32;2.80;;;;;;;;;;2593352;22;20144;-91
2023/09/20 00:39:34;;;;;;;4.25;3.35;;;;;;;;;;2597676;22;19995;-90
2023/09/20 00:40:37;;;;;;;5.45;3.50;;;;;;;;;;2593296;22;20003;-90
2023/09/20 00:41:37;;;;;;;3.42;2.63;;;;;;;;;;2581085;22;20369;-90
2023/09/20 00:42:37;;;;;;;6.28;3.50;;;;;;;;;;2593316;22;20098;-90
2023/09/20 00:43:38;;;;;;;4.18;3.03;;;;;;;;;;2609841;22;20382;-91
2023/09/20 00:44:38;;;;;;;8.05;3.25;;;;;;;;;;2597906;22;20332;-90
2023/09/20 00:45:40;;;;;;;7.55;3.95;;;;;;;;;;2593521;22;20410;-90
2023/09/20 00:46:42;;;;;;;3.00;2.53;;;;;;;;;;2139166;22;10495099;-90
2023/09/20 00:47:56;;;;;;;3.88;3.17;;;;;;;;;;2597464;22;20071;-91
2023/09/20 00:48:56;;;;;;;3.63;3.17;;;;;;;;;;2596628;22;20073;-90
2023/09/20 00:49:57;;;;;;;4.15;3.10;;;;;;;;;;2593441;22;20003;-90
2023/09/20 00:50:58;;;;;;;3.40;2.85;;;;;;;;;;2593236;22;20039;-91
2023/09/20 00:51:59;;;;;;;6.70;3.75;;;;;;;;;;2594171;22;20084;-94
2023/09/20 00:53:00;;;;;;;4.15;2.88;;;;;;;;;;2581951;23;20054;-93
2023/09/20 00:54:04;;;;;;;3.75;3.38;;;;;;;;;;2594932;22;20007;-94
2023/09/20 00:55:04;;;;;;;6.85;3.45;;;;;;;;;;2595107;22;20008;-94
2023/09/20 00:56:09;;;;;;;7.75;3.13;;;;;;;;;;2582046;23;20000;-94
2023/09/20 00:57:11;;;;;;;5.28;3.05;;;;;;;;;;2594653;22;20007;-94
2023/09/20 00:58:14;;;;;;;5.18;3.65;;;;;;;;;;2594825;22;20082;-93
2023/09/20 00:59:16;;;;;;;4.78;3.33;;;;;;;;;;2582588;22;20508;-94
2023/09/20 01:00:30;;;;;;;6.20;3.47;;;;;;;;;;2582331;22;20008;-94
2023/09/20 01:01:30;;;;;;;3.72;3.05;;;;;;;;;;2599184;22;20003;-93
2023/09/20 01:02:31;;;;;;;4.80;3.38;;;;;;;;;;2594632;22;20098;-94
2023/09/20 01:03:33;;;;;;;6.75;3.47;;;;;;;;;;2581821;23;20089;-94
2023/09/20 01:04:34;;;;;;;4.53;3.60;;;;;;;;;;2582016;22;20430;-93
2023/09/20 01:05:36;;;;;;;5.75;3.67;;;;;;;;;;2582077;22;20473;-93
2023/09/20 01:06:39;;;;;;;3.88;3.03;;;;;;;;;;2594677;22;20003;-94
2023/09/20 01:07:42;;;;;;;4.82;3.15;;;;;;;;;;2582495;22;20054;-95
2023/09/20 01:08:42;;;;;;;4.70;3.58;;;;;;;;;;2582224;22;20078;-94
2023/09/20 01:09:43;;;;;;;4.82;3.60;;;;;;;;;;2594563;22;20149;-94
2023/09/20 01:10:45;;;;;;;4.60;3.28;;;;;;;;;;2594773;22;20000;-93
2023/09/20 01:11:45;;;;;;;5.18;3.10;;;;;;;;;;2594706;22;20007;-93
2023/09/20 01:12:46;;;;;;;3.75;3.15;;;;;;;;;;2594637;22;20023;-93
2023/09/20 01:13:48;;;;;;;3.92;3.42;;;;;;;;;;2594788;22;20046;-93
2023/09/20 01:14:49;;;;;;;6.72;3.47;;;;;;;;;;2581780;23;20031;-93
2023/09/20 01:15:49;;;;;;;4.80;3.50;;;;;;;;;;2597582;22;20004;-92
2023/09/20 01:16:53;;;;;;;4.82;4.03;;;;;;;;;;2594686;22;20011;-93
2023/09/20 01:17:58;;;;;;;5.03;3.33;;;;;;;;;;2582664;22;20118;-93
2023/09/20 01:18:58;;;;;;;4.28;3.50;;;;;;;;;;2582618;22;20027;-94
2023/09/20 01:20:01;;;;;;;7.20;3.53;;;;;;;;;;2581854;23;20516;-94
2023/09/20 01:21:03;;;;;;;5.38;3.45;;;;;;;;;;2582025;22;20461;-94
2023/09/20 01:22:04;;;;;;;6.13;3.40;;;;;;;;;;2594512;22;20015;-93
2023/09/20 01:23:05;;;;;;;6.35;3.75;;;;;;;;;;2594795;22;20420;-94
2023/09/20 01:24:06;;;;;;;4.93;3.50;;;;;;;;;;2582058;22;20341;-93
2023/09/20 01:25:09;;;;;;;7.15;4.07;;;;;;;;;;2582526;22;20038;-94
2023/09/20 01:26:13;;;;;;;5.85;3.70;;;;;;;;;;2582359;22;20000;-93
2023/09/20 01:27:13;;;;;;;4.45;3.03;;;;;;;;;;2582404;22;20043;-95
2023/09/20 01:28:14;;;;;;;4.97;3.38;;;;;;;;;;2582073;23;20023;-94
2023/09/20 01:29:14;;;;;;;6.00;3.65;;;;;;;;;;2581985;23;20056;-93
2023/09/20 01:30:16;;;;;;;4.70;3.33;;;;;;;;;;2594721;22;20011;-93
2023/09/20 01:31:16;;;;;;;8.57;3.70;;;;;;;;;;2595785;22;20003;-94
2023/09/20 01:32:16;;;;;;;5.45;4.20;;;;;;;;;;2594896;22;20070;-93
2023/09/20 01:33:17;;;;;;;4.50;3.22;;;;;;;;;;2594694;22;20067;-93
2023/09/20 01:34:18;;;;;;;5.40;3.38;;;;;;;;;;2594727;22;20038;-93
2023/09/20 01:35:19;;;;;;;7.13;3.90;;;;;;;;;;2581685;23;20059;-94
2023/09/20 01:36:19;;;;;;;4.90;3.55;;;;;;;;;;2582082;22;20019;-94
2023/09/20 01:38:46;;;;;;;3.40;2.85;;;;;;;;;;2595653;22;20075;-92
2023/09/20 01:39:46;;;;;;;5.53;4.13;;;;;;;;;;2594575;22;20381;-94
2023/09/20 01:40:47;;;;;;;5.00;3.00;;;;;;;;;;2581778;23;19992;-94
2023/09/20 01:41:47;;;;;;;5.28;3.50;;;;;;;;;;2582019;23;20031;-94
2023/09/20 01:42:48;;;;;;;6.22;3.28;;;;;;;;;;2594545;22;20398;-95
2023/09/20 01:43:48;;;;;;;5.18;3.65;;;;;;;;;;2582156;22;20027;-93
2023/09/20 01:44:49;;;;;;;5.80;4.18;;;;;;;;;;2581832;23;20386;-94
2023/09/20 01:45:49;;;;;;;5.05;3.80;;;;;;;;;;2581882;23;20047;-93
2023/09/20 01:46:51;;;;;;;4.60;3.30;;;;;;;;;;2581636;23;20005;-94
2023/09/20 01:47:53;;;;;;;5.50;3.28;;;;;;;;;;2581972;23;20409;-94
2023/09/20 01:48:53;;;;;;;5.10;3.55;;;;;;;;;;2594504;22;20009;-93
2023/09/20 01:49:54;;;;;;;4.60;3.40;;;;;;;;;;2594448;22;20019;-93
2023/09/20 01:50:54;;;;;;;5.30;3.45;;;;;;;;;;2594585;22;20420;-94
2023/09/20 01:51:55;;;;;;;5.97;3.70;;;;;;;;;;2581861;23;20468;-94
2023/09/20 01:52:57;;;;;;;5.33;3.93;;;;;;;;;;2140611;23;10243325;-94
2023/09/20 01:53:58;;;;;;;5.28;3.38;;;;;;;;;;2582258;22;20008;-94
2023/09/20 01:55:01;;;;;;;6.80;3.53;;;;;;;;;;2581823;23;20032;-94
2023/09/20 01:56:01;;;;;;;6.22;4.35;;;;;;;;;;2596727;22;20358;-94
2023/09/20 01:57:01;;;;;;;6.32;4.22;;;;;;;;;;2161495;22;10001345;-94
2023/09/20 01:58:06;;;;;;;4.85;3.67;;;;;;;;;;2596415;22;20023;-93
2023/09/20 01:59:06;;;;;;;5.22;3.67;;;;;;;;;;2594494;22;20025;-94
2023/09/20 02:00:11;;;;;;;6.50;3.30;;;;;;;;;;2596343;22;19999;-93
2023/09/20 02:01:12;;;;;;;5.68;4.65;;;;;;;;;;2609700;22;20017;-94
2023/09/20 02:02:13;;;;;;;4.07;3.67;;;;;;;;;;2607758;22;20420;-95
2023/09/20 02:03:16;;;;;;;4.82;4.10;;;;;;;;;;2594735;22;20000;-93
2023/09/20 02:04:18;;;;;;;7.25;3.92;;;;;;;;;;2594678;22;20429;-93
2023/09/20 02:05:19;;;;;;;6.25;3.75;;;;;;;;;;2582210;22;20074;-93
2023/09/20 02:06:21;;;;;;;4.40;3.53;;;;;;;;;;2581862;23;20411;-94
2023/09/20 02:07:22;;;;;;;5.75;3.97;;;;;;;;;;2582254;22;19996;-94
2023/09/20 02:08:23;;;;;;;5.85;4.07;;;;;;;;;;2581909;22;20024;-94
2023/09/20 02:09:24;;;;;;;5.72;3.90;;;;;;;;;;2594610;22;20004;-93
2023/09/20 02:10:24;;;;;;;5.63;3.83;;;;;;;;;;2594367;22;20008;-93
2023/09/20 02:11:25;;;;;;;5.40;3.78;;;;;;;;;;2594305;22;20034;-94
2023/09/20 02:12:25;;;;;;;4.80;3.80;;;;;;;;;;2607160;22;20045;-93
2023/09/20 02:13:25;;;;;;;6.95;4.00;;;;;;;;;;2581638;22;20005;-92
2023/09/20 02:14:27;;;;;;;6.50;3.47;;;;;;;;;;2581520;23;20015;-93
2023/09/20 02:15:29;;;;;;;4.28;3.88;;;;;;;;;;2581754;22;20028;-94
2023/09/20 02:16:32;;;;;;;6.05;4.00;;;;;;;;;;2581633;22;20504;-93
2023/09/20 02:17:32;;;;;;;6.18;4.10;;;;;;;;;;2581940;22;20220;-93
2023/09/20 02:18:33;;;;;;;4.95;3.75;;;;;;;;;;2594315;22;20396;-93
2023/09/20 02:19:34;;;;;;;6.00;3.67;;;;;;;;;;2581746;23;20539;-93
2023/09/20 02:20:37;;;;;;;4.47;3.60;;;;;;;;;;2581479;22;20000;-94
2023/09/20 02:21:38;;;;;;;5.50;4.22;;;;;;;;;;2594221;22;19995;-95
2023/09/20 02:22:40;;;;;;;5.93;4.32;;;;;;;;;;2581513;23;20086;-93
2023/09/20 02:23:40;;;;;;;4.90;4.18;;;;;;;;;;2582066;22;20011;-93
2023/09/20 02:24:40;;;;;;;7.20;4.13;;;;;;;;;;2597934;22;19996;-93
2023/09/20 02:25:42;;;;;;;7.93;3.58;;;;;;;;;;2607114;22;20002;-93
2023/09/20 02:26:42;;;;;;;4.40;4.00;;;;;;;;;;2594399;22;19999;-94
2023/09/20 02:27:44;;;;;;;7.43;4.13;;;;;;;;;;2594355;22;20364;-94
2023/09/20 02:28:44;;;;;;;7.13;4.38;;;;;;;;;;2597802;22;20066;-93
2023/09/20 02:29:45;;;;;;;5.40;4.25;;;;;;;;;;2596689;22;20349;-91
2023/09/20 02:30:45;;;;;;;9.32;4.03;;;;;;;;;;2597079;22;20513;-92
2023/09/20 02:31:47;;;;;;;5.28;4.28;;;;;;;;;;2597201;22;20000;-91
2023/09/20 02:32:51;;;;;;;5.78;4.10;;;;;;;;;;2585043;22;20418;-91
2023/09/20 02:33:53;;;;;;;6.07;4.00;;;;;;;;;;2583798;22;20063;-91
2023/09/20 02:34:54;;;;;;;6.55;4.22;;;;;;;;;;2597837;22;20016;-92
2023/09/20 02:35:55;;;;;;;6.28;4.00;;;;;;;;;;2594497;22;20010;-93
2023/09/20 02:36:56;;;;;;;7.75;4.20;;;;;;;;;;2581480;23;20039;-93
2023/09/20 02:37:58;;;;;;;6.10;4.50;;;;;;;;;;2581749;22;20118;-94
2023/09/20 02:38:59;;;;;;;6.97;4.88;;;;;;;;;;2594233;22;20022;-93
2023/09/20 02:40:00;;;;;;;6.30;4.07;;;;;;;;;;2596359;22;20004;-93
2023/09/20 02:41:00;;;;;;;6.22;4.50;;;;;;;;;;2607237;22;20440;-93
2023/09/20 02:42:01;;;;;;;4.38;3.75;;;;;;;;;;2601597;22;20007;-92
2023/09/20 02:43:07;;;;;;;5.75;4.40;;;;;;;;;;2589164;22;20004;-94
2023/09/20 02:44:08;;;;;;;9.77;5.18;;;;;;;;;;2606801;22;20077;-93
2023/09/20 02:45:09;;;;;;;6.18;4.60;;;;;;;;;;2600272;22;20000;-94
2023/09/20 02:46:09;;;;;;;5.00;4.30;;;;;;;;;;2596911;22;20034;-93
2023/09/20 02:47:09;;;;;;;6.78;4.32;;;;;;;;;;2596321;22;20004;-93
2023/09/20 02:48:10;;;;;;;5.18;4.10;;;;;;;;;;2581701;23;20529;-94
2023/09/20 02:49:10;;;;;;;6.47;4.53;;;;;;;;;;2581846;23;20004;-95
2023/09/20 02:50:13;;;;;;;7.13;4.82;;;;;;;;;;2582012;22;20008;-93
2023/09/20 02:51:13;;;;;;;6.85;4.35;;;;;;;;;;2595564;22;20004;-93
2023/09/20 02:52:17;;;;;;;9.52;4.22;;;;;;;;;;2594200;22;20008;-93
2023/09/20 02:53:18;;;;;;;6.88;4.25;;;;;;;;;;2583097;22;20012;-95
2023/09/20 02:54:19;;;;;;;7.97;4.80;;;;;;;;;;2582405;22;20402;-93
2023/09/20 02:55:22;;;;;;;6.32;4.35;;;;;;;;;;2595349;22;20004;-92
2023/09/20 02:56:22;;;;;;;7.97;4.47;;;;;;;;;;2582868;22;20326;-93
2023/09/20 02:57:22;;;;;;;5.95;4.90;;;;;;;;;;2582452;23;20008;-94
2023/09/20 02:58:23;;;;;;;5.72;4.20;;;;;;;;;;2595067;22;20012;-94
2023/09/20 02:59:23;;;;;;;6.05;4.63;;;;;;;;;;2596017;22;20004;-94
2023/09/20 03:00:28;;;;;;;5.93;4.15;;;;;;;;;;2149559;22;10291498;-94
2023/09/20 03:01:28;;;;;;;5.00;4.20;;;;;;;;;;2583432;22;20012;-94
2023/09/20 03:02:29;;;;;;;5.43;4.20;;;;;;;;;;2582413;23;20318;-94
2023/09/20 03:03:30;;;;;;;8.90;4.85;;;;;;;;;;2581862;22;20095;-91
2023/09/20 03:04:31;;;;;;;5.35;3.78;;;;;;;;;;2580842;23;20003;-91
2023/09/20 03:05:33;;;;;;;5.90;4.05;;;;;;;;;;2581042;23;20050;-90
2023/09/20 03:06:33;;;;;;;8.65;4.57;;;;;;;;;;2581196;22;20000;-90
2023/09/20 03:07:34;;;;;;;5.95;4.47;;;;;;;;;;2593877;22;19996;-90
2023/09/20 03:08:35;;;;;;;6.90;4.28;;;;;;;;;;2154877;22;10146402;-91
2023/09/20 03:09:36;;;;;;;8.48;5.00;;;;;;;;;;2611236;22;20010;-91
2023/09/20 03:10:43;;;;;;;7.57;4.38;;;;;;;;;;2593627;22;20142;-91
2023/09/20 03:11:44;;;;;;;6.55;4.65;;;;;;;;;;2598402;22;19991;-91
2023/09/20 03:12:46;;;;;;;6.88;4.20;;;;;;;;;;2593899;22;20076;-91
2023/09/20 03:13:46;;;;;;;6.20;4.43;;;;;;;;;;2584454;22;20032;-90
2023/09/20 03:14:50;;;;;;;8.30;4.78;;;;;;;;;;2596702;22;20011;-90
2023/09/20 03:15:54;;;;;;;6.35;4.50;;;;;;;;;;2146658;22;10321998;-91
2023/09/20 03:16:55;;;;;;;5.60;4.28;;;;;;;;;;2582049;22;20060;-91
2023/09/20 03:18:02;;;;;;;7.35;4.65;;;;;;;;;;2596427;22;20004;-90
2023/09/20 03:19:04;;;;;;;7.00;4.82;;;;;;;;;;2609510;22;20613;-90
2023/09/20 03:20:22;;;;;;;7.05;4.53;;;;;;;;;;2608144;22;20352;-91
2023/09/20 03:21:28;;;;;;;6.60;4.55;;;;;;;;;;2613639;22;19987;-93
2023/09/20 03:22:29;;;;;;;6.57;4.82;;;;;;;;;;2595230;22;20019;-93
2023/09/20 03:23:29;;;;;;;6.70;5.07;;;;;;;;;;2582780;22;20012;-93
2023/09/20 03:24:29;;;;;;;8.88;4.68;;;;;;;;;;2582599;23;20035;-94
2023/09/20 03:25:36;;;;;;;8.60;5.07;;;;;;;;;;2599329;22;20019;-93
2023/09/20 03:26:37;;;;;;;7.97;4.78;;;;;;;;;;2607949;22;20106;-94
2023/09/20 03:27:40;;;;;;;6.72;4.20;;;;;;;;;;2594963;22;20026;-94
2023/09/20 03:28:43;;;;;;;6.73;4.50;;;;;;;;;;2164487;22;10001187;-94
2023/09/20 03:29:43;;;;;;;5.70;4.80;;;;;;;;;;2582922;22;20055;-93
2023/09/20 03:30:45;;;;;;;6.97;5.07;;;;;;;;;;2582782;22;19996;-94
2023/09/20 03:31:45;;;;;;;5.82;4.18;;;;;;;;;;2595282;22;19996;-93
2023/09/20 03:32:50;;;;;;;6.35;4.50;;;;;;;;;;2582521;23;20079;-94
2023/09/20 03:33:50;;;;;;;6.38;4.43;;;;;;;;;;2583363;22;20434;-94
2023/09/20 03:34:50;;;;;;;8.20;5.13;;;;;;;;;;2582868;23;20138;-93
2023/09/20 03:35:52;;;;;;;7.97;4.60;;;;;;;;;;2582795;23;20008;-92
2023/09/20 03:36:52;;;;;;;7.38;5.05;;;;;;;;;;2595492;22;20332;-94
2023/09/20 03:37:53;;;;;;;9.27;5.20;;;;;;;;;;2582819;22;20004;-92
2023/09/20 03:38:57;;;;;;;7.38;4.70;;;;;;;;;;2584210;23;20012;-93
2023/09/20 03:39:58;;;;;;;7.22;5.30;;;;;;;;;;2583726;22;20028;-94
2023/09/20 03:40:59;;;;;;;8.23;5.38;;;;;;;;;;2582984;22;20034;-94
2023/09/20 03:41:59;;;;;;;7.82;5.80;;;;;;;;;;2595339;22;20065;-94
2023/09/20 03:43:03;;;;;;;13.63;6.18;;;;;;;;;;2595356;22;20010;-93
2023/09/20 03:44:04;;;;;;;7.00;5.55;;;;;;;;;;2595466;22;20100;-95
2023/09/20 03:45:14;;;;;;;7.28;5.70;;;;;;;;;;2584523;22;20091;-94
2023/09/20 03:46:14;;;;;;;8.93;6.25;;;;;;;;;;2595227;22;20075;-94
2023/09/20 03:47:15;;;;;;;10.73;5.93;;;;;;;;;;2595687;22;20053;-93
2023/09/20 03:48:15;;;;;;;7.88;5.88;;;;;;;;;;2617300;22;20007;-94
2023/09/20 03:49:16;;;;;;;11.88;6.55;;;;;;;;;;2604264;22;20011;-93
2023/09/20 03:50:19;;;;;;;8.50;5.25;;;;;;;;;;2590882;23;20098;-94
2023/09/20 03:51:19;;;;;;;7.78;5.60;;;;;;;;;;2591767;22;20055;-93
2023/09/20 03:52:20;;;;;;;7.75;5.50;;;;;;;;;;2598285;22;20000;-93
2023/09/20 03:53:20;;;;;;;10.70;5.43;;;;;;;;;;2594583;22;20007;-93
2023/09/20 03:54:20;;;;;;;8.27;5.70;;;;;;;;;;2595078;22;20161;-93
2023/09/20 03:55:23;;;;;;;5.65;4.72;;;;;;;;;;2595121;22;20062;-94
2023/09/20 03:56:23;;;;;;;7.47;5.40;;;;;;;;;;2595193;22;20018;-94
2023/09/20 03:57:25;;;;;;;7.63;5.78;;;;;;;;;;2582501;23;20027;-94
2023/09/20 03:58:25;;;;;;;5.78;4.55;;;;;;;;;;2595293;22;20011;-93
2023/09/20 03:59:26;;;;;;;7.60;4.80;;;;;;;;;;2595107;22;20409;-94
2023/09/20 04:00:31;;;;;;;7.63;5.13;;;;;;;;;;2582396;23;20078;-94
2023/09/20 04:01:34;;;;;;;7.80;4.18;;;;;;;;;;2596014;22;20075;-93
2023/09/20 04:02:34;;;;;;;7.05;4.40;;;;;;;;;;2595093;22;20579;-93
2023/09/20 04:03:35;;;;;;;6.07;4.80;;;;;;;;;;2598887;22;20008;-94
2023/09/20 04:04:36;;;;;;;5.32;4.43;;;;;;;;;;2607700;22;20471;-94
2023/09/20 04:05:37;;;;;;;7.30;5.15;;;;;;;;;;2595094;22;20425;-94
2023/09/20 04:06:38;;;;;;;8.35;4.68;;;;;;;;;;2594850;22;20433;-93
2023/09/20 04:07:39;;;;;;;7.43;4.70;;;;;;;;;;2582603;22;20003;-94
2023/09/20 04:08:41;;;;;;;6.97;5.25;;;;;;;;;;2582479;22;20000;-93
2023/09/20 04:09:43;;;;;;;8.45;5.35;;;;;;;;;;2582581;22;20484;-94
2023/09/20 04:10:44;;;;;;;8.88;5.57;;;;;;;;;;2582609;22;20031;-93
2023/09/20 04:11:44;;;;;;;9.38;5.95;;;;;;;;;;2595676;22;19996;-92
2023/09/20 04:12:47;;;;;;;10.07;5.57;;;;;;;;;;2595177;22;20408;-94
2023/09/20 04:13:50;;;;;;;6.75;5.00;;;;;;;;;;2582838;22;19993;-93
2023/09/20 04:14:54;;;;;;;8.60;5.00;;;;;;;;;;2582652;22;20078;-92
2023/09/20 04:15:54;;;;;;;9.50;5.32;;;;;;;;;;2594951;22;20519;-92
2023/09/20 04:16:54;;;;;;;6.70;4.97;;;;;;;;;;2594741;22;20065;-94
2023/09/20 04:17:55;;;;;;;7.80;5.40;;;;;;;;;;2582224;23;20008;-94
2023/09/20 04:18:55;;;;;;;15.75;5.43;;;;;;;;;;2597613;22;20003;-94
2023/09/20 04:19:56;;;;;;;10.63;5.70;;;;;;;;;;2611204;22;20003;-93
2023/09/20 04:20:56;;;;;;;7.30;5.50;;;;;;;;;;2594877;22;20008;-94
2023/09/20 04:21:57;;;;;;;8.65;5.95;;;;;;;;;;2582460;23;20004;-94
2023/09/20 04:22:57;;;;;;;6.15;4.75;;;;;;;;;;2582287;23;20008;-93
2023/09/20 04:23:59;;;;;;;6.97;5.07;;;;;;;;;;2582400;23;20058;-94
2023/09/20 04:25:00;;;;;;;8.25;4.85;;;;;;;;;;2582451;22;20401;-94
2023/09/20 04:26:00;;;;;;;7.93;6.10;;;;;;;;;;2594914;22;20003;-94
2023/09/20 04:27:08;;;;;;;8.32;5.68;;;;;;;;;;2595534;22;20473;-93
2023/09/20 04:28:09;;;;;;;8.20;5.43;;;;;;;;;;2585062;22;20118;-94
2023/09/20 04:29:10;;;;;;;9.80;6.03;;;;;;;;;;2596577;22;20458;-93
2023/09/20 04:30:13;;;;;;;8.95;5.88;;;;;;;;;;2594882;22;20004;-95
2023/09/20 04:31:14;;;;;;;7.43;5.30;;;;;;;;;;2582877;22;20439;-94
2023/09/20 04:32:15;;;;;;;8.10;5.10;;;;;;;;;;2582217;23;20082;-94
2023/09/20 04:33:16;;;;;;;11.43;5.82;;;;;;;;;;2582431;22;20008;-94
2023/09/20 04:34:16;;;;;;;8.45;5.47;;;;;;;;;;2581957;22;20477;-93
2023/09/20 04:35:16;;;;;;;10.75;5.75;;;;;;;;;;2582178;23;20007;-94
2023/09/20 04:36:17;;;;;;;5.45;4.63;;;;;;;;;;2582064;23;20405;-94
2023/09/20 04:37:19;;;;;;;5.93;5.05;;;;;;;;;;2582290;22;20000;-94
2023/09/20 04:38:19;;;;;;;5.65;4.78;;;;;;;;;;2595018;22;20437;-94
2023/09/20 04:39:20;;;;;;;8.02;5.18;;;;;;;;;;2594962;22;20091;-95
2023/09/20 04:40:21;;;;;;;6.60;5.32;;;;;;;;;;2582213;22;20012;-94
2023/09/20 04:41:22;;;;;;;10.20;5.68;;;;;;;;;;2582367;22;20012;-94
2023/09/20 04:42:22;;;;;;;8.13;5.25;;;;;;;;;;2582455;23;20012;-94
2023/09/20 04:43:23;;;;;;;8.48;5.95;;;;;;;;;;2594770;22;20122;-93
2023/09/20 04:44:23;;;;;;;9.80;5.22;;;;;;;;;;2594620;22;20008;-94
2023/09/20 04:45:23;;;;;;;6.68;4.95;;;;;;;;;;2582272;23;20442;-93
2023/09/20 04:46:25;;;;;;;8.80;5.60;;;;;;;;;;2595462;22;20004;-93
2023/09/20 04:47:28;;;;;;;9.23;5.50;;;;;;;;;;2594977;22;20012;-93
2023/09/20 04:48:28;;;;;;;7.65;5.07;;;;;;;;;;2595175;22;20456;-93
2023/09/20 04:49:29;;;;;;;9.70;6.10;;;;;;;;;;2595110;22;20066;-93
2023/09/20 04:50:29;;;;;;;7.65;5.15;;;;;;;;;;2594843;22;20020;-93
2023/09/20 04:51:30;;;;;;;9.40;5.57;;;;;;;;;;2581921;23;20468;-93
2023/09/20 04:52:31;;;;;;;7.72;5.50;;;;;;;;;;2582105;22;20000;-93
2023/09/20 04:53:33;;;;;;;9.35;5.82;;;;;;;;;;2594609;22;20515;-93
2023/09/20 04:54:33;;;;;;;8.07;5.70;;;;;;;;;;2594595;22;20019;-93
2023/09/20 04:55:34;;;;;;;7.57;5.53;;;;;;;;;;2582309;23;20000;-93
2023/09/20 04:56:36;;;;;;;9.63;4.80;;;;;;;;;;2581932;23;19996;-93
2023/09/20 04:57:36;;;;;;;7.10;5.10;;;;;;;;;;2585962;22;20322;-94
2023/09/20 04:58:37;;;;;;;8.38;5.60;;;;;;;;;;2582039;23;20024;-92
2023/09/20 04:59:38;;;;;;;8.18;6.07;;;;;;;;;;2598600;22;20015;-93
2023/09/20 05:00:38;;;;;;;10.40;5.78;;;;;;;;;;2611913;22;20432;-92
2023/09/20 05:01:38;;;;;;;9.57;6.78;;;;;;;;;;2594722;22;20006;-93
2023/09/20 05:02:39;;;;;;;6.90;5.15;;;;;;;;;;2582138;23;20004;-93
2023/09/20 05:03:39;;;;;;;8.68;6.15;;;;;;;;;;2598266;22;20421;-93
2023/09/20 05:04:40;;;;;;;7.05;5.13;;;;;;;;;;2594825;22;20071;-93
2023/09/20 05:05:43;;;;;;;8.30;5.75;;;;;;;;;;2582072;23;20024;-94
2023/09/20 05:06:45;;;;;;;7.90;4.93;;;;;;;;;;2594734;22;20424;-94
2023/09/20 05:07:46;;;;;;;8.35;5.95;;;;;;;;;;2582703;22;20026;-93
2023/09/20 05:08:46;;;;;;;9.88;6.20;;;;;;;;;;2594425;22;19992;-93
2023/09/20 05:09:49;;;;;;;10.32;5.38;;;;;;;;;;2610765;22;19984;-94
2023/09/20 05:10:49;;;;;;;8.00;6.07;;;;;;;;;;2607384;22;19995;-94
2023/09/20 05:11:50;;;;;;;9.30;6.25;;;;;;;;;;2599880;22;20019;-94
2023/09/20 05:12:50;;;;;;;9.70;6.57;;;;;;;;;;2594911;22;20015;-92
2023/09/20 05:13:52;;;;;;;10.43;5.55;;;;;;;;;;2582248;23;20000;-94
2023/09/20 05:14:52;;;;;;;7.43;6.55;;;;;;;;;;2594918;22;20008;-94
2023/09/20 05:15:53;;;;;;;9.30;7.35;;;;;;;;;;2594785;22;20102;-94
2023/09/20 05:16:56;;;;;;;10.38;6.38;;;;;;;;;;2597447;22;20019;-94
2023/09/20 05:17:56;;;;;;;8.45;5.20;;;;;;;;;;2607595;22;20035;-94
2023/09/20 05:18:57;;;;;;;7.88;6.13;;;;;;;;;;2609867;22;20353;-94
2023/09/20 05:19:58;;;;;;;8.75;6.20;;;;;;;;;;2594444;22;20038;-94
2023/09/20 05:20:59;;;;;;;9.60;6.00;;;;;;;;;;2582067;23;20462;-93
2023/09/20 05:22:00;;;;;;;8.95;7.18;;;;;;;;;;2581950;23;20004;-94
2023/09/20 05:23:03;;;;;;;8.13;6.28;;;;;;;;;;2582203;22;20501;-95
2023/09/20 05:24:04;;;;;;;12.70;6.95;;;;;;;;;;2594871;22;20011;-94
2023/09/20 05:25:05;;;;;;;12.38;6.70;;;;;;;;;;2596305;22;20404;-94
2023/09/20 05:26:05;;;;;;;11.15;6.93;;;;;;;;;;2594553;22;20004;-94
2023/09/20 05:27:06;;;;;;;10.68;6.00;;;;;;;;;;2581971;23;20446;-94
2023/09/20 05:28:12;;;;;;;12.23;7.53;;;;;;;;;;2596347;22;20449;-94
2023/09/20 05:29:13;;;;;;;11.57;7.28;;;;;;;;;;2609587;22;20029;-93
2023/09/20 05:30:14;;;;;;;8.88;6.68;;;;;;;;;;2594694;22;20110;-93
2023/09/20 05:31:15;;;;;;;9.43;7.50;;;;;;;;;;2582010;22;20054;-94
2023/09/20 05:32:16;;;;;;;9.02;6.68;;;;;;;;;;2594722;22;20008;-93
2023/09/20 05:33:17;;;;;;;11.48;7.32;;;;;;;;;;2594758;22;20373;-95
2023/09/20 05:34:17;;;;;;;9.35;6.95;;;;;;;;;;2594717;22;20086;-93
2023/09/20 05:35:18;;;;;;;10.05;7.63;;;;;;;;;;2594536;22;20075;-91
2023/09/20 05:36:21;;;;;;;11.23;6.18;;;;;;;;;;2594794;22;20014;-92
2023/09/20 05:37:21;;;;;;;11.55;8.75;;;;;;;;;;2594723;22;20003;-94
2023/09/20 05:38:22;;;;;;;11.63;7.03;;;;;;;;;;2594707;22;20047;-94
2023/09/20 05:39:22;;;;;;;11.18;8.50;;;;;;;;;;2594821;22;20039;-93
2023/09/20 05:40:27;;;;;;;10.18;8.43;;;;;;;;;;2594593;22;20019;-94
2023/09/20 05:41:29;;;;;;;10.27;7.80;;;;;;;;;;2582998;22;20091;-92
2023/09/20 05:42:29;;;;;;;11.70;8.43;;;;;;;;;;2594801;22;20015;-94
2023/09/20 05:43:29;;;;;;;13.32;8.80;;;;;;;;;;2582182;23;20446;-94
2023/09/20 05:44:31;;;;;;;11.23;8.02;;;;;;;;;;2566229;23;20008;-93
2023/09/20 05:45:31;;;;;;;12.95;8.95;;;;;;;;;;2581941;22;20432;-93
2023/09/20 05:46:31;;;;;;;15.05;7.47;;;;;;;;;;2599829;22;20003;-93
2023/09/20 05:47:33;;;;;;;14.68;9.10;;;;;;;;;;2596025;22;20003;-94
2023/09/20 05:48:34;;;;;;;15.57;10.27;;;;;;;;;;2583678;22;20079;-94
2023/09/20 05:49:35;;;;;;;16.17;9.65;;;;;;;;;;2586434;22;20414;-91
2023/09/20 05:50:46;;;;;;;14.50;10.34;;;;;;;;;;2539426;22;10418000;-91
2023/09/20 05:51:46;;;;;;;14.02;9.77;;;;;;;;;;2600261;22;20204;-91
2023/09/20 05:52:51;;;;;;;12.40;8.65;;;;;;;;;;2598107;22;20453;-92
2023/09/20 05:53:51;;;;;;;15.60;10.48;;;;;;;;;;2599920;22;20062;-92
2023/09/20 05:54:53;;;;;;;14.75;10.05;;;;;;;;;;2595146;22;20465;-93
2023/09/20 05:55:56;;;;;;;15.55;8.80;;;;;;;;;;2581960;22;20004;-94
2023/09/20 05:56:59;;;;;;;15.35;10.40;;;;;;;;;;2582448;22;20074;-93
2023/09/20 05:58:00;;;;;;;12.23;9.05;;;;;;;;;;2582152;22;20008;-94
2023/09/20 05:59:05;;;;;;;17.40;11.63;;;;;;;;;;2581821;22;20054;-94
2023/09/20 06:00:11;;;;;;;17.70;9.57;;;;;;;;;;2594330;22;20353;-93
2023/09/20 06:01:12;;;;;;;16.90;11.73;;;;;;;;;;2596055;22;20003;-94
2023/09/20 06:02:16;;;;;;;18.65;12.18;;;;;;;;;;2582183;22;20004;-93
2023/09/20 06:03:16;;;;;;;16.67;10.27;;;;;;;;;;2595290;22;20011;-94
2023/09/20 06:04:18;;;;;;;18.20;12.40;;;;;;;;;;2608576;22;19999;-93
2023/09/20 06:05:19;;;;;;;16.42;10.55;;;;;;;;;;2608949;22;20074;-93
2023/09/20 06:06:20;;;;;;;16.17;10.88;;;;;;;;;;2609055;22;20113;-93
2023/09/20 06:07:20;;;;;;;15.20;10.27;;;;;;;;;;2594516;22;20061;-93
2023/09/20 06:08:25;;;;;;;15.43;11.10;;;;;;;;;;2581993;23;20008;-94